Corapeake, North Carolina
Current Conditions -  °F | °C
As of 7:15 PM on Wednesday 26 Nov 2014 (Local Time) from KCPK Reporting Station
Overcast Overcast  
Wind Chill: 36°   Ceiling: 1300
Heat Index: 41°   Visibility: 10mi
Dew Point: 41°   Wind: 8mph
Humidity: 100%   Direction: 300°WNW
Pressure: 29.96"   Gusts: NA
Location:  36.53°N, 76.58°W
Report Text: KCPK 270015Z AUTO 30007KT 10SM OVC013 05/05 A2996 RMK AO2
Loading
Personal Weather Stations






























Interactive Weather Map New forecast layout! Learn more

10-Day Weather Forecast

Advertisements
Track Severe Weather on mobile